Map

Track Data

SID SEASON NUMBER BASIN SUBBASIN NAME ISO_TIME NATURE LAT LON WMO_WIND WMO_PRES WMO_AGENCY TRACK_TYPE DIST2LAND LANDFALL IFLAG USA_AGENCY USA_ATCF_ID USA_LAT USA_LON USA_RECORD USA_STATUS USA_WIND USA_PRES USA_SSHS USA_R34_NE USA_R34_SE USA_R34_SW USA_R34_NW USA_R50_NE USA_R50_SE USA_R50_SW USA_R50_NW USA_R64_NE USA_R64_SE USA_R64_SW USA_R64_NW USA_POCI USA_ROCI USA_RMW USA_EYE TOKYO_LAT TOKYO_LON TOKYO_GRADE TOKYO_WIND TOKYO_PRES TOKYO_R50_DIR TOKYO_R50_LONG TOKYO_R50_SHORT TOKYO_R30_DIR TOKYO_R30_LONG TOKYO_R30_SHORT TOKYO_LAND CMA_LAT CMA_LON CMA_CAT CMA_WIND CMA_PRES HKO_LAT HKO_LON HKO_CAT HKO_WIND HKO_PRES NEWDELHI_LAT NEWDELHI_LON NEWDELHI_GRADE NEWDELHI_WIND NEWDELHI_PRES NEWDELHI_CI NEWDELHI_DP NEWDELHI_POCI REUNION_LAT REUNION_LON REUNION_TYPE REUNION_WIND REUNION_PRES REUNION_TNUM REUNION_CI REUNION_RMW REUNION_R34_NE REUNION_R34_SE REUNION_R34_SW REUNION_R34_NW REUNION_R50_NE REUNION_R50_SE REUNION_R50_SW REUNION_R50_NW REUNION_R64_NE REUNION_R64_SE REUNION_R64_SW REUNION_R64_NW BOM_LAT BOM_LON BOM_TYPE BOM_WIND BOM_PRES BOM_TNUM BOM_CI BOM_RMW BOM_R34_NE BOM_R34_SE BOM_R34_SW BOM_R34_NW BOM_R50_NE BOM_R50_SE BOM_R50_SW BOM_R50_NW BOM_R64_NE BOM_R64_SE BOM_R64_SW BOM_R64_NW BOM_ROCI BOM_POCI BOM_EYE BOM_POS_METHOD BOM_PRES_METHOD NADI_LAT NADI_LON NADI_CAT NADI_WIND NADI_PRES WELLINGTON_LAT WELLINGTON_LON WELLINGTON_WIND WELLINGTON_PRES DS824_LAT DS824_LON DS824_STAGE DS824_WIND DS824_PRES TD9636_LAT TD9636_LON TD9636_STAGE TD9636_WIND TD9636_PRES TD9635_LAT TD9635_LON TD9635_WIND TD9635_PRES TD9635_ROCI NEUMANN_LAT NEUMANN_LON NEUMANN_CLASS NEUMANN_WIND NEUMANN_PRES MLC_LAT MLC_LON MLC_CLASS MLC_WIND MLC_PRES USA_GUST BOM_GUST BOM_GUST_PER REUNION_GUST REUNION_GUST_PER USA_SEAHGT USA_SEARAD_NE USA_SEARAD_SE USA_SEARAD_SW USA_SEARAD_NW STORM_SPEED STORM_DIR
1993043S11193 1993 12 SP MM NISHA 1993-02-11 12:00:00 TS -10.9000 -167.000 main 646 646 O___________O_ jtwc_sh SH181993 -10.9000 -167.000 20 -1 -10.9000 -167.000 TC 20 13 127
1993043S11193 1993 12 SP MM NISHA 1993-02-11 15:00:00 TS -11.2752 -166.488 main 674 674 P___________P_ SH181993 -11.2752 -166.488 20 -1 -11.2752 -166.488 TC 20 13 129
1993043S11193 1993 12 SP MM NISHA 1993-02-11 18:00:00 TS -11.7000 -166.000 main 709 709 O___________O_ jtwc_sh SH181993 -11.7000 -166.000 20 -1 -11.7000 -166.000 TC 20 13 136
1993043S11193 1993 12 SP MM NISHA 1993-02-11 21:00:00 TS -12.2125 -165.562 main 735 735 P___________P_ SH181993 -12.2125 -165.562 22 -1 -12.2125 -165.562 TC 22 13 147
1993043S11193 1993 12 SP MM NISHA 1993-02-12 00:00:00 TS -12.7667 -165.289 main 753 752 O_______O___O_ jtwc_sh SH181993 -12.8000 -165.200 25 -1 -12.5000 -166.000 30 997 -12.8000 -165.200 TC 25 13 159
1993043S11193 1993 12 SP MM NISHA 1993-02-12 03:00:00 TS -13.3749 -165.095 main 768 768 P_______P___P_ SH181993 -13.4349 -164.927 27 -1 -13.1350 -165.768 30 997 -13.4349 -164.927 TC 27 13 164
1993043S11193 1993 12 SP MM NISHA 1993-02-12 06:00:00 TS -14.0182 -164.918 main 788 788 O_______O___O_ jtwc_sh SH181993 -14.1000 -164.700 30 -1 -13.8000 -165.500 30 997 -14.1000 -164.700 TC 30 14 163
1993043S11193 1993 12 SP MM NISHA 1993-02-12 09:00:00 TS -14.6692 -164.686 main 814 814 P_______P___P_ SH181993 -14.7500 -164.442 30 -1 -14.5075 -165.172 30 997 -14.7500 -164.442 TC 30 14 159
1993043S11193 1993 12 SP MM NISHA 1993-02-12 12:00:00 TS -15.3333 -164.400 main 856 856 O_______O___O_ jtwc_sh SH181993 -15.4000 -164.200 30 -1 -15.2000 -164.800 30 997 -15.4000 -164.200 TC 30 14 158
1993043S11193 1993 12 SP MM NISHA 1993-02-12 15:00:00 TS -15.9941 -164.126 main 904 904 P_______P___P_ SH181993 -16.0799 -163.992 32 -1 -15.8225 -164.392 30 997 -16.0799 -163.992 TC 32 14 158
1993043S11193 1993 12 SP MM NISHA 1993-02-12 18:00:00 TS -16.6000 -163.867 main 944 944 O_______O___O_ jtwc_sh SH181993 -16.7000 -163.800 35 0 -16.4000 -164.000 30 997 -16.7000 -163.800 TC 35 12 157
1993043S11193 1993 12 SP MM NISHA 1993-02-12 21:00:00 TS -17.1158 -163.633 main 993 993 P_______P___P_ SH181993 -17.1799 -163.607 40 0 -16.9874 -163.685 32 996 -17.1799 -163.607 TC 40 11 155
1993043S11193 1993 12 SP MM NISHA 1993-02-13 00:00:00 TS -17.5667 -163.400 main 1033 1033 O_______O___O_ jtwc_sh SH181993 -17.6000 -163.400 45 0 -17.5000 -163.400 35 995 -17.6000 -163.400 TC 45 10 153
1993043S11193 1993 12 SP MM NISHA 1993-02-13 03:00:00 TS -18.0107 -163.153 main 1071 1071 P_______P___P_ SH181993 -18.0724 -163.180 47 0 -17.8874 -163.100 40 991 -18.0724 -163.180 TC 47 10 149
1993043S11193 1993 12 SP MM NISHA 1993-02-13 06:00:00 TS -18.4000 -162.867 main 1118 1118 O_______O___O_ jtwc_sh SH181993 -18.5000 -162.900 50 0 -18.2000 -162.800 45 987 -18.5000 -162.900 TC 50 9 140
1993043S11193 1993 12 SP MM NISHA 1993-02-13 09:00:00 TS -18.7249 -162.527 main 1171 1171 P_______P___P_ SH181993 -18.8299 -162.537 50 0 -18.5149 -162.507 47 986 -18.8299 -162.537 TC 50 9 131
1993043S11193 1993 12 SP MM NISHA 1993-02-13 12:00:00 TS -19.0000 -162.133 main 1224 1224 O_______O___O_ jtwc_sh SH181993 -19.1000 -162.100 50 0 -18.8000 -162.200 50 985 -19.1000 -162.100 TC 50 9 125
1993043S11193 1993 12 SP MM NISHA 1993-02-13 15:00:00 TS -19.2472 -161.725 main 1271 1271 P_______P___P_ SH181993 -19.3498 -161.630 52 0 -19.0420 -161.917 52 982 -19.3498 -161.630 TC 52 10 120
1993043S11193 1993 12 SP MM NISHA 1993-02-13 18:00:00 TS -19.5000 -161.233 main 1333 1333 O_______O___O_ jtwc_sh SH181993 -19.6000 -161.100 55 0 -19.3000 -161.500 55 980 -19.6000 -161.100 TC 55 12 118
1993043S11193 1993 12 SP MM NISHA 1993-02-13 21:00:00 TS -19.8068 -160.611 main 1405 1405 P_______P___P_ SH181993 -19.8924 -160.522 57 0 -19.6356 -160.788 55 980 -19.8924 -160.522 TC 57 14 117
1993043S11193 1993 12 SP MM NISHA 1993-02-14 00:00:00 TS -20.1333 -159.933 main 1485 1485 O_______O___O_ jtwc_sh SH181993 -20.2000 -159.900 60 0 -20.0000 -160.000 55 980 -20.2000 -159.900 TC 60 14 117
1993043S11193 1993 12 SP MM NISHA 1993-02-14 03:00:00 TS -20.4344 -159.324 main 1556 1556 P_______P___P_ SH181993 -20.4770 -159.287 62 0 -20.3493 -159.399 55 980 -20.4770 -159.287 TC 62 13 118
1993043S11193 1993 12 SP MM NISHA 1993-02-14 06:00:00 TS -20.7667 -158.667 main 1632 1632 O_______O___O_ jtwc_sh SH181993 -20.8000 -158.600 65 1 -20.7000 -158.800 55 980 -20.8000 -158.600 TC 65 15 118
1993043S11193 1993 12 SP MM NISHA 1993-02-14 09:00:00 TS -21.1632 -157.882 main 1726 1726 P_______P___P_ SH181993 -21.2275 -157.780 65 1 -21.0347 -158.087 57 977 -21.2275 -157.780 TC 65 17 119
1993043S11193 1993 12 SP MM NISHA 1993-02-14 12:00:00 TS -21.6000 -157.033 main 1829 1829 O_______O___O_ jtwc_sh SH181993 -21.7000 -156.900 65 1 -21.4000 -157.300 60 975 -21.7000 -156.900 TC 65 18 119
1993043S11193 1993 12 SP MM NISHA 1993-02-14 15:00:00 TS -22.0369 -156.200 main 1923 1923 P_______P___P_ SH181993 -22.1494 -156.057 65 1 -21.8119 -156.487 60 975 -22.1494 -156.057 TC 65 18 120
1993043S11193 1993 12 SP MM NISHA 1993-02-14 18:00:00 TS -22.5000 -155.333 main 2031 2031 O_______O___O_ jtwc_sh SH181993 -22.6000 -155.200 65 1 -22.3000 -155.600 60 975 -22.6000 -155.200 TC 65 19 120
1993043S11193 1993 12 SP MM NISHA 1993-02-14 21:00:00 TS -22.9874 -154.402 main 2138 2138 P_______P___P_ SH181993 -23.0346 -154.307 62 0 -22.8928 -154.593 57 977 -23.0346 -154.307 TC 62 20 120
1993043S11193 1993 12 SP MM NISHA 1993-02-15 00:00:00 TS -23.5000 -153.467 main 2245 2245 O_______O___O_ jtwc_sh SH181993 -23.5000 -153.400 60 0 -23.5000 -153.600 55 980 -23.5000 -153.400 TC 60 19 122
1993043S11193 1993 12 SP MM NISHA 1993-02-15 03:00:00 TS -24.0100 -152.599 main 2352 2352 P_______P___P_ SH181993 -24.0270 -152.499 57 0 -23.9761 -152.798 55 980 -24.0270 -152.499 TC 57 19 124
1993043S11193 1993 12 SP MM NISHA 1993-02-15 06:00:00 TS -24.5667 -151.733 main 2463 2463 O_______O___O_ jtwc_sh SH181993 -24.6000 -151.600 55 0 -24.5000 -152.000 55 980 -24.6000 -151.600 TC 55 20 126
1993043S11193 1993 12 SP MM NISHA 1993-02-15 09:00:00 TS -25.2016 -150.795 main 2574 2574 P_______P___P_ SH181993 -25.1846 -150.692 52 0 -25.2355 -151.001 55 980 -25.1846 -150.692 TC 52 21 128
1993043S11193 1993 12 SP MM NISHA 1993-02-15 12:00:00 TS -25.8667 -149.867 55 980 wellington main 2689 2689 O_______O___O_ jtwc_sh SH181993 -25.8000 -149.800 50 0 -26.0000 -150.000 55 980 -25.8000 -149.800 TC 50 21 129
1993043S11193 1993 12 SP MM NISHA 1993-02-15 15:00:00 TS -26.5070 -149.003 main 2799 2799 P_______P___P_ SH181993 -26.4346 -148.927 50 0 -26.6517 -149.154 52 982 -26.4346 -148.927 TC 50 20 130
1993043S11193 1993 12 SP MM NISHA 1993-02-15 18:00:00 TS -27.1333 -148.200 50 985 wellington main 2900 2900 O_______O___O_ jtwc_sh SH181993 -27.1000 -148.100 50 0 -27.2000 -148.400 50 985 -27.1000 -148.100 TC 50 19 130
1993043S11193 1993 12 SP MM NISHA 1993-02-15 21:00:00 TS -27.7184 -147.396 main 3000 3000 P_______P___P_ SH181993 -27.7700 -147.290 47 0 -27.6152 -147.609 47 986 -27.7700 -147.290 TC 47 18 133
1993043S11193 1993 12 SP MM NISHA 1993-02-16 00:00:00 TS -28.3333 -146.733 45 987 wellington main 3091 3091 O_______O___O_ jtwc_sh SH181993 -28.5000 -146.600 45 0 -28.0000 -147.000 45 987 -28.5000 -146.600 TC 45 16 143
1993043S11193 1993 12 SP MM NISHA 1993-02-16 03:00:00 TS -29.0362 -146.284 main 3161 3161 P_______P___P_ SH181993 -29.3121 -146.067 42 0 -28.4844 -146.717 42 988 -29.3121 -146.067 TC 42 15 157
1993043S11193 1993 12 SP MM NISHA 1993-02-16 06:00:00 TS -29.7200 -146.060 40 990 wellington main 3214 3214 O_______O___O_ jtwc_sh SH181993 -30.2000 -145.700 40 0 -29.0000 -146.600 40 990 -30.2000 -145.700 TC 40 13 167
1993043S11193 1993 12 SP MM NISHA 1993-02-16 09:00:00 TS -30.3188 -145.954 main 3254 3254 P_______P___P_ SH181993 -31.1376 -145.465 35 0 -29.5000 -146.442 37 992 -31.1376 -145.465 TC 35 11 173
1993043S11193 1993 12 SP MM NISHA 1993-02-16 12:00:00 TS -30.8400 -145.900 35 995 wellington main 3290 3257 O_______O___O_ jtwc_sh SH181993 -32.1000 -145.300 30 -1 -30.0000 -146.300 35 995 -32.1000 -145.300 TC 30 2 224
1993043S11193 1993 12 SP MM NISHA 1993-02-16 15:00:00 NR -30.5001 -146.153 main 3248 3248 ________P_____ SH181993 -1 -30.5001 -146.153 32 996 TC 2 208
1993043S11193 1993 12 SP MM NISHA 1993-02-16 18:00:00 NR -31.0000 -146.000 30 997 wellington main 3292 ________O_____ -1 -31.0000 -146.000 30 997 10 165

Digital Typhoon Data and Search

About IBTrACS Database

This database is a web-friendly format of International Best Track Archive for Climate Stewardship (IBTrACS), a global best track data archive curated by NOAA dating back to 1842.

Updated: 2021-10-08